Time;durP1;ratioP1;P1;durP2;ratioP2;P2;SDS_P1;SDS_P2;PMS_P1;PMS_P2;Temp;Humidity;BMP_temperature;BMP_pressure;BME280_temperature;BME280_humidity;BME280_pressure;Samples;Min_cycle;Max_cycle;Signal;HPM_P1;HPM_P2
2021/01/24 00:02:00;;;;;;;4.78;3.47;;;5.20;99.90;;;;;;5106426;28;20221;-78
2021/01/24 00:04:26;;;;;;;5.90;3.95;;;5.10;99.90;;;;;;5110481;28;20208;-78
2021/01/24 00:06:53;;;;;;;5.57;3.33;;;5.40;99.90;;;;;;5095616;28;20269;-77
2021/01/24 00:09:19;;;;;;;5.10;3.80;;;5.40;99.90;;;;;;5090003;28;20237;-78
2021/01/24 00:11:46;;;;;;;5.57;3.10;;;5.40;99.90;;;;;;5105472;28;20307;-77
2021/01/24 00:14:13;;;;;;;4.10;2.60;;;5.30;99.90;;;;;;5116000;28;20269;-78
2021/01/24 00:16:40;;;;;;;4.43;2.63;;;5.30;99.90;;;;;;5092808;28;20201;-78
2021/01/24 00:19:06;;;;;;;5.00;2.55;;;5.50;99.90;;;;;;5089743;28;20205;-78
2021/01/24 00:21:33;;;;;;;3.75;1.88;;;5.40;99.90;;;;;;5090656;28;20225;-78
2021/01/24 00:23:59;;;;;;;4.13;1.95;;;5.50;99.90;;;;;;5090088;28;20769;-78
2021/01/24 00:26:26;;;;;;;3.42;1.95;;;5.20;99.90;;;;;;5106116;28;20204;-77
2021/01/24 00:28:52;;;;;;;3.30;1.95;;;5.40;99.90;;;;;;5113466;28;20216;-78
2021/01/24 00:31:20;;;;;;;3.17;1.80;;;5.30;99.90;;;;;;5097699;28;20225;-78
2021/01/24 00:33:46;;;;;;;3.28;1.80;;;5.20;99.90;;;;;;5073048;28;20205;-77
2021/01/24 00:36:14;;;;;;;3.50;1.85;;;5.10;99.90;;;;;;5098444;28;20627;-78
2021/01/24 00:38:40;;;;;;;2.70;1.48;;;5.10;99.90;;;;;;5094472;28;20209;-78
2021/01/24 00:41:07;;;;;;;2.83;1.45;;;5.30;99.90;;;;;;5104147;28;20259;-78
2021/01/24 00:43:34;;;;;;;2.90;1.80;;;5.40;99.90;;;;;;5113670;28;20205;-77
2021/01/24 00:46:01;;;;;;;2.95;1.48;;;5.50;99.90;;;;;;5111285;28;20569;-77
2021/01/24 00:48:28;;;;;;;3.13;1.70;;;5.30;99.90;;;;;;5107133;28;20205;-78
2021/01/24 00:50:55;;;;;;;2.95;1.75;;;5.40;99.90;;;;;;5104002;28;20216;-78
2021/01/24 00:53:22;;;;;;;3.05;1.83;;;5.30;99.90;;;;;;5113445;27;20224;-78
2021/01/24 00:55:48;;;;;;;3.03;1.75;;;5.30;99.90;;;;;;5111628;28;20245;-77
2021/01/24 00:58:15;;;;;;;3.35;1.88;;;5.20;99.90;;;;;;5113028;28;20201;-78
2021/01/24 01:00:41;;;;;;;3.10;1.98;;;5.00;99.90;;;;;;5093810;28;20229;-78
2021/01/24 01:03:08;;;;;;;3.25;1.90;;;5.30;99.90;;;;;;5104019;28;20246;-78
2021/01/24 01:05:36;;;;;;;3.08;1.60;;;5.10;99.90;;;;;;5099847;28;20197;-78
2021/01/24 01:08:02;;;;;;;3.28;1.73;;;5.10;99.90;;;;;;5087550;28;20202;-78
2021/01/24 01:10:29;;;;;;;3.90;2.10;;;5.30;99.90;;;;;;5080464;28;20226;-77
2021/01/24 01:12:55;;;;;;;4.80;2.05;;;5.10;99.90;;;;;;5077409;28;20217;-78
2021/01/24 01:15:22;;;;;;;3.85;1.90;;;5.20;99.90;;;;;;5092453;28;20197;-78
2021/01/24 01:17:49;;;;;;;3.25;1.80;;;5.20;99.90;;;;;;5095873;28;20194;-78
2021/01/24 01:20:16;;;;;;;3.08;1.75;;;5.00;99.90;;;;;;5073434;28;20560;-78
2021/01/24 01:22:43;;;;;;;3.78;1.67;;;5.00;99.90;;;;;;5097772;28;20207;-77
2021/01/24 01:25:11;;;;;;;3.10;1.50;;;4.80;99.90;;;;;;5114821;28;20266;-78
2021/01/24 01:27:37;;;;;;;2.70;1.40;;;4.90;99.90;;;;;;5101994;28;20694;-78
2021/01/24 01:30:04;;;;;;;3.17;1.70;;;4.90;99.90;;;;;;5111909;28;20228;-78
2021/01/24 01:32:31;;;;;;;2.75;1.38;;;4.90;99.90;;;;;;5101298;28;20229;-78
2021/01/24 01:34:57;;;;;;;3.17;1.73;;;5.00;99.90;;;;;;5091714;28;20213;-78
2021/01/24 01:37:24;;;;;;;4.05;1.80;;;5.10;99.90;;;;;;5096458;28;20205;-78
2021/01/24 01:39:51;;;;;;;4.60;1.92;;;5.10;99.90;;;;;;5091655;28;20561;-78
2021/01/24 01:42:18;;;;;;;3.28;1.73;;;5.20;99.90;;;;;;5097616;28;20207;-79
2021/01/24 01:44:45;;;;;;;3.50;1.90;;;4.80;99.90;;;;;;5113684;28;20233;-78
2021/01/24 01:47:13;;;;;;;3.53;2.10;;;4.90;99.90;;;;;;5109494;28;20205;-78
2021/01/24 01:49:40;;;;;;;3.80;2.15;;;4.80;99.90;;;;;;5092633;28;20686;-78
2021/01/24 01:52:06;;;;;;;3.03;1.80;;;4.80;99.90;;;;;;5093300;28;20656;-78
2021/01/24 01:54:33;;;;;;;3.80;2.00;;;5.00;99.90;;;;;;5091822;28;20209;-77
2021/01/24 01:57:00;;;;;;;4.47;2.20;;;4.90;99.90;;;;;;5092431;28;20266;-78
2021/01/24 01:59:27;;;;;;;3.45;1.90;;;5.00;99.90;;;;;;5071502;28;20240;-77
2021/01/24 02:02:03;;;;;;;3.40;2.25;;;4.90;99.90;;;;;;5072483;28;20210;-77
2021/01/24 02:04:39;;;;;;;3.15;1.83;;;4.80;99.90;;;;;;5073722;28;20194;-77
2021/01/24 02:07:12;;;;;;;3.30;2.00;;;4.90;99.90;;;;;;5102101;28;20212;-77
2021/01/24 02:09:42;;;;;;;3.88;1.90;;;5.00;99.90;;;;;;5092159;28;20229;-77
2021/01/24 02:12:17;;;;;;;3.25;1.75;;;5.10;99.90;;;;;;5095298;28;20232;-77
2021/01/24 02:14:50;;;;;;;2.63;1.17;;;5.10;99.90;;;;;;5074517;28;20529;-77
2021/01/24 02:17:18;;;;;;;2.60;0.80;;;5.00;99.90;;;;;;5091191;28;20245;-77
2021/01/24 02:19:56;;;;;;;2.17;0.70;;;5.00;99.90;;;;;;5091230;28;20727;-78
2021/01/24 02:22:25;;;;;;;2.50;0.93;;;5.00;99.90;;;;;;5091294;28;20228;-77
2021/01/24 02:24:58;;;;;;;2.58;0.85;;;5.30;99.90;;;;;;5091114;28;20250;-77
2021/01/24 02:27:36;;;;;;;2.20;0.80;;;5.00;99.90;;;;;;5107537;28;20200;-77
2021/01/24 02:30:27;;;;;;;2.42;0.60;;;5.00;99.90;;;;;;5111033;28;20403;-77
2021/01/24 02:32:59;;;;;;;2.45;0.77;;;5.20;99.90;;;;;;5068589;28;20285;-78
2021/01/24 02:35:28;;;;;;;2.20;0.60;;;5.10;99.90;;;;;;5071075;28;20562;-78
2021/01/24 02:37:57;;;;;;;2.20;0.70;;;5.30;99.90;;;;;;5093673;28;20682;-78
2021/01/24 02:40:23;;;;;;;2.10;0.70;;;5.00;99.90;;;;;;5090938;28;20232;-78
2021/01/24 02:42:51;;;;;;;1.90;0.60;;;5.30;99.90;;;;;;5107191;28;20196;-78
2021/01/24 02:45:20;;;;;;;2.97;0.60;;;5.20;99.90;;;;;;5075961;28;20205;-78
2021/01/24 02:47:48;;;;;;;2.33;0.60;;;5.40;99.90;;;;;;5107374;28;20204;-77
2021/01/24 02:50:15;;;;;;;1.90;0.50;;;5.10;99.90;;;;;;5110318;28;20277;-78
2021/01/24 02:52:43;;;;;;;2.55;0.80;;;5.10;99.90;;;;;;5097577;28;20224;-77
2021/01/24 02:55:10;;;;;;;1.90;0.40;;;5.10;99.90;;;;;;5091162;28;20220;-77
2021/01/24 02:57:38;;;;;;;2.00;0.60;;;5.10;99.90;;;;;;5090122;28;20232;-77
2021/01/24 03:00:06;;;;;;;1.80;0.50;;;5.00;99.90;;;;;;5099210;28;20240;-78
2021/01/24 03:02:34;;;;;;;2.05;0.65;;;4.80;99.90;;;;;;5090282;28;20280;-78
2021/01/24 03:05:00;;;;;;;2.05;0.55;;;4.80;99.90;;;;;;5104167;28;20200;-78
2021/01/24 03:07:28;;;;;;;2.30;0.65;;;4.80;99.90;;;;;;5100089;28;20206;-77
2021/01/24 03:09:56;;;;;;;2.50;0.82;;;4.90;99.90;;;;;;5091131;28;20221;-77
2021/01/24 03:12:25;;;;;;;2.20;0.75;;;4.60;99.90;;;;;;5094961;28;20223;-77
2021/01/24 03:14:52;;;;;;;2.20;0.82;;;5.00;99.90;;;;;;5107013;28;20200;-78
2021/01/24 03:17:21;;;;;;;2.47;0.90;;;4.70;99.90;;;;;;5085258;28;20313;-78
2021/01/24 03:19:50;;;;;;;2.50;1.20;;;4.80;99.90;;;;;;5088791;28;20221;-78
2021/01/24 03:22:18;;;;;;;2.70;1.10;;;4.70;99.90;;;;;;5088412;28;20201;-78
2021/01/24 03:24:47;;;;;;;2.90;1.30;;;4.90;99.90;;;;;;5090169;28;20284;-78
2021/01/24 03:27:14;;;;;;;2.53;1.00;;;4.70;99.90;;;;;;5090282;28;20219;-78
2021/01/24 03:29:41;;;;;;;3.20;1.20;;;4.70;99.90;;;;;;5089676;28;20655;-78
2021/01/24 03:32:07;;;;;;;2.60;1.20;;;4.30;99.90;;;;;;5090045;28;20221;-78
2021/01/24 03:34:34;;;;;;;2.70;1.15;;;4.40;99.90;;;;;;5090837;28;20622;-78
2021/01/24 03:37:01;;;;;;;3.63;1.52;;;4.50;99.90;;;;;;5093475;28;20212;-77
2021/01/24 03:39:28;;;;;;;3.35;1.30;;;4.60;99.90;;;;;;5089253;28;20221;-77
2021/01/24 03:41:54;;;;;;;3.63;1.60;;;4.30;99.90;;;;;;5089875;28;20594;-77
2021/01/24 03:44:21;;;;;;;3.00;1.30;;;4.30;99.90;;;;;;5089802;28;20627;-77
2021/01/24 03:46:47;;;;;;;5.63;2.30;;;4.40;99.90;;;;;;5089772;28;20331;-77
2021/01/24 03:49:14;;;;;;;3.22;1.50;;;4.10;99.90;;;;;;5092853;28;20265;-77
2021/01/24 03:51:40;;;;;;;3.30;1.80;;;4.20;99.90;;;;;;5089725;28;20671;-78
2021/01/24 03:54:08;;;;;;;4.50;1.92;;;4.20;99.90;;;;;;5088730;28;20205;-78
2021/01/24 03:56:35;;;;;;;3.58;1.90;;;4.30;99.90;;;;;;5089107;28;20201;-78
2021/01/24 03:59:01;;;;;;;3.58;2.00;;;4.30;99.90;;;;;;5088967;28;20208;-78
2021/01/24 04:01:30;;;;;;;3.70;1.80;;;4.10;99.90;;;;;;5090032;28;20205;-78
2021/01/24 04:03:56;;;;;;;6.05;2.40;;;4.20;99.90;;;;;;5090987;28;20514;-78
2021/01/24 04:06:23;;;;;;;3.45;2.25;;;4.30;99.90;;;;;;5109077;28;20200;-78
2021/01/24 04:08:50;;;;;;;4.88;2.10;;;4.30;99.90;;;;;;5099276;27;20204;-78
2021/01/24 04:11:17;;;;;;;5.40;2.50;;;4.40;99.90;;;;;;5094077;28;20221;-78
2021/01/24 04:13:44;;;;;;;3.35;1.75;;;4.50;99.90;;;;;;5073910;28;20225;-78
2021/01/24 04:16:10;;;;;;;8.80;2.45;;;4.40;99.90;;;;;;5097465;28;20611;-78
2021/01/24 04:18:37;;;;;;;4.55;1.85;;;4.30;99.90;;;;;;5099967;28;20277;-77
2021/01/24 04:21:05;;;;;;;4.03;2.17;;;4.40;99.90;;;;;;5112385;28;20659;-78
2021/01/24 04:23:31;;;;;;;4.40;2.20;;;4.40;99.90;;;;;;5078987;28;20321;-78
2021/01/24 04:25:58;;;;;;;3.15;1.30;;;4.40;99.90;;;;;;5093362;28;20205;-78
2021/01/24 04:28:26;;;;;;;3.65;2.30;;;4.50;99.90;;;;;;5082651;28;20577;-77
2021/01/24 04:30:52;;;;;;;4.10;2.15;;;4.30;99.90;;;;;;5100914;28;20217;-77
2021/01/24 04:33:19;;;;;;;4.68;2.50;;;4.30;99.90;;;;;;5109737;28;20220;-77
2021/01/24 04:35:45;;;;;;;3.55;1.88;;;4.20;99.90;;;;;;5111883;28;20224;-77
2021/01/24 04:38:12;;;;;;;5.35;1.73;;;4.30;99.90;;;;;;5091897;28;20206;-77
2021/01/24 04:40:39;;;;;;;3.78;1.95;;;4.10;99.90;;;;;;5100113;28;20225;-77
2021/01/24 04:43:05;;;;;;;3.72;1.98;;;4.10;99.90;;;;;;5116135;28;20228;-77
2021/01/24 04:45:33;;;;;;;3.60;2.10;;;3.90;99.90;;;;;;5105300;28;20221;-77
2021/01/24 04:48:00;;;;;;;4.95;2.35;;;4.30;99.90;;;;;;5075003;28;20198;-77
2021/01/24 04:50:28;;;;;;;4.00;2.05;;;4.00;99.90;;;;;;5093656;28;20220;-77
2021/01/24 04:52:56;;;;;;;4.38;1.85;;;4.00;99.90;;;;;;5096141;28;20225;-77
2021/01/24 04:55:23;;;;;;;3.20;1.70;;;3.60;99.90;;;;;;5103612;28;20670;-77
2021/01/24 04:57:52;;;;;;;3.25;1.80;;;4.00;99.90;;;;;;5095824;28;20279;-77
2021/01/24 05:00:19;;;;;;;3.28;1.73;;;4.00;99.90;;;;;;5103470;28;20245;-77
2021/01/24 05:02:47;;;;;;;4.95;2.03;;;3.80;99.90;;;;;;5105754;28;20205;-77
2021/01/24 05:05:15;;;;;;;3.75;1.60;;;3.90;99.90;;;;;;5102095;28;20197;-77
2021/01/24 05:07:52;;;;;;;3.95;2.00;;;3.90;99.90;;;;;;5103242;28;20225;-77
2021/01/24 05:10:23;;;;;;;4.47;1.80;;;3.90;99.90;;;;;;5112401;28;20769;-78
2021/01/24 05:12:49;;;;;;;4.75;1.75;;;3.80;99.90;;;;;;5105538;28;20221;-77
2021/01/24 05:15:16;;;;;;;5.32;1.70;;;3.90;99.90;;;;;;5097892;28;20218;-77
2021/01/24 05:17:54;;;;;;;4.70;1.92;;;3.90;99.90;;;;;;5078657;28;20197;-77
2021/01/24 05:20:22;;;;;;;3.80;1.67;;;3.60;99.90;;;;;;5092459;28;20298;-77
2021/01/24 05:22:48;;;;;;;5.07;2.60;;;3.90;99.90;;;;;;5097145;28;20196;-77
2021/01/24 05:25:19;;;;;;;4.78;2.40;;;3.80;99.90;;;;;;5105744;28;20204;-77
2021/01/24 05:27:46;;;;;;;3.30;1.83;;;3.80;99.90;;;;;;5091241;28;20258;-77
2021/01/24 05:30:19;;;;;;;5.05;2.10;;;3.80;99.90;;;;;;5095710;28;20220;-78
2021/01/24 05:32:46;;;;;;;4.43;2.53;;;3.80;99.90;;;;;;5107723;28;20286;-78
2021/01/24 05:35:14;;;;;;;4.25;1.73;;;3.70;99.90;;;;;;5092702;28;20213;-78
2021/01/24 05:37:45;;;;;;;3.95;2.22;;;3.70;99.90;;;;;;5113772;28;20200;-79
2021/01/24 05:40:12;;;;;;;4.20;2.10;;;3.70;99.90;;;;;;5107181;28;20224;-77
2021/01/24 05:42:40;;;;;;;9.25;2.90;;;3.60;99.90;;;;;;5095271;28;20201;-78
2021/01/24 05:45:11;;;;;;;5.90;3.20;;;3.70;99.90;;;;;;5096883;28;20209;-79
2021/01/24 05:47:39;;;;;;;4.55;2.58;;;3.60;99.90;;;;;;5092811;28;20209;-76
2021/01/24 05:50:10;;;;;;;3.63;1.90;;;3.60;99.90;;;;;;5110536;28;20714;-79
2021/01/24 05:52:40;;;;;;;4.35;2.45;;;3.70;99.90;;;;;;5113616;28;20246;-79
2021/01/24 05:55:08;;;;;;;7.57;2.53;;;3.60;99.90;;;;;;5093472;28;20273;-79
2021/01/24 05:57:37;;;;;;;5.85;2.20;;;3.70;99.90;;;;;;5094404;28;20224;-78
2021/01/24 06:00:06;;;;;;;5.10;2.70;;;3.60;99.90;;;;;;5117336;28;20239;-78
2021/01/24 06:02:32;;;;;;;6.65;3.95;;;3.40;99.90;;;;;;5114536;28;20209;-79
2021/01/24 06:04:59;;;;;;;5.10;2.72;;;3.60;99.90;;;;;;5104003;28;20267;-79
2021/01/24 06:07:26;;;;;;;4.10;2.30;;;3.60;99.90;;;;;;5101533;28;20226;-78
2021/01/24 06:09:53;;;;;;;4.72;2.55;;;3.40;99.90;;;;;;5112794;28;20737;-79
2021/01/24 06:12:24;;;;;;;4.07;2.33;;;3.60;99.90;;;;;;5104969;28;20216;-78
2021/01/24 06:14:52;;;;;;;7.20;2.55;;;3.70;99.90;;;;;;5093510;28;20281;-79
2021/01/24 06:17:30;;;;;;;5.53;2.30;;;3.20;99.90;;;;;;5099843;28;20240;-79
2021/01/24 06:19:59;;;;;;;4.63;2.88;;;3.40;99.90;;;;;;5094966;28;20304;-79
2021/01/24 06:22:31;;;;;;;6.40;3.17;;;3.40;99.90;;;;;;5095170;28;20197;-79
2021/01/24 06:25:02;;;;;;;6.57;3.03;;;3.30;99.90;;;;;;5090376;28;20768;-77
2021/01/24 06:27:37;;;;;;;5.63;3.00;;;3.30;99.90;;;;;;5087205;28;20228;-77
2021/01/24 06:30:07;;;;;;;5.30;3.03;;;3.30;99.90;;;;;;5113300;28;20675;-77
2021/01/24 06:32:34;;;;;;;5.60;2.80;;;3.40;99.90;;;;;;5103599;28;20260;-78
2021/01/24 06:35:22;;;;;;;5.63;2.80;;;3.20;99.90;;;;;;5075148;28;20210;-78
2021/01/24 06:37:57;;;;;;;4.35;2.83;;;3.50;99.90;;;;;;5090699;28;20216;-78
2021/01/24 06:40:28;;;;;;;5.13;2.60;;;3.30;99.90;;;;;;5111830;28;20251;-79
2021/01/24 06:42:59;;;;;;;5.68;2.88;;;3.20;99.90;;;;;;5102579;28;20197;-79
2021/01/24 06:45:42;;;;;;;5.07;3.05;;;3.40;99.90;;;;;;5071145;28;20213;-78
2021/01/24 06:48:10;;;;;;;5.53;3.50;;;3.00;99.90;;;;;;5092719;28;20208;-78
2021/01/24 06:50:46;;;;;;;3.95;2.22;;;3.30;99.90;;;;;;5108878;28;20220;-78
2021/01/24 06:53:20;;;;;;;6.15;3.13;;;3.30;99.90;;;;;;5109063;28;20219;-77
2021/01/24 06:55:56;;;;;;;4.85;2.83;;;3.30;99.90;;;;;;5097495;28;20204;-78
2021/01/24 06:58:30;;;;;;;5.57;3.05;;;3.20;99.90;;;;;;5090935;28;20263;-78
2021/01/24 07:01:27;;;;;;;5.90;2.50;;;3.40;99.90;;;;;;5107669;28;20227;-78
2021/01/24 07:04:39;;;;;;;4.85;3.15;;;3.40;99.90;;;;;;5006417;28;20223;-78
2021/01/24 07:07:39;;;;;;;5.15;2.75;;;3.40;99.90;;;;;;5083452;28;20711;-78
2021/01/24 07:10:08;;;;;;;6.13;2.35;;;3.20;99.90;;;;;;5067055;28;20225;-78
2021/01/24 07:12:38;;;;;;;4.97;2.45;;;3.30;99.90;;;;;;5071814;28;20290;-78
2021/01/24 07:15:07;;;;;;;4.93;2.90;;;3.50;99.90;;;;;;5091939;28;20207;-78
2021/01/24 07:17:35;;;;;;;7.10;2.90;;;3.40;99.90;;;;;;5111922;28;20208;-78
2021/01/24 07:20:03;;;;;;;5.00;3.10;;;3.30;99.90;;;;;;5110936;28;20227;-80
2021/01/24 07:22:31;;;;;;;5.55;2.72;;;3.40;99.90;;;;;;5112040;28;20204;-77
2021/01/24 07:24:57;;;;;;;5.53;2.67;;;3.20;99.90;;;;;;5093835;28;20208;-77
2021/01/24 07:27:28;;;;;;;5.28;3.00;;;3.10;99.90;;;;;;5090186;28;20209;-78
2021/01/24 07:29:56;;;;;;;7.20;3.00;;;3.20;99.90;;;;;;5107483;28;20251;-77
2021/01/24 07:32:23;;;;;;;6.78;2.70;;;3.00;99.90;;;;;;5107879;28;20289;-77
2021/01/24 07:34:51;;;;;;;5.30;2.97;;;3.20;99.90;;;;;;5095257;28;20212;-77
2021/01/24 07:37:19;;;;;;;10.02;3.00;;;3.00;99.90;;;;;;5093238;28;20213;-77
2021/01/24 07:39:47;;;;;;;8.65;2.85;;;3.10;99.90;;;;;;5095040;28;20312;-78
2021/01/24 07:42:14;;;;;;;5.10;2.90;;;3.30;99.90;;;;;;5111399;28;20197;-78
2021/01/24 07:44:42;;;;;;;4.50;2.33;;;3.10;99.90;;;;;;5095252;28;20306;-78
2021/01/24 07:47:11;;;;;;;4.40;2.20;;;3.00;99.90;;;;;;5099023;28;20197;-78
2021/01/24 07:49:38;;;;;;;4.60;2.70;;;3.20;99.90;;;;;;5094915;28;20229;-78
2021/01/24 07:52:06;;;;;;;4.80;2.17;;;3.00;99.90;;;;;;5108243;28;20276;-78
2021/01/24 07:54:34;;;;;;;4.35;2.17;;;3.30;99.90;;;;;;5095332;28;20208;-77
2021/01/24 07:57:01;;;;;;;5.15;2.50;;;3.40;99.90;;;;;;5097875;28;20202;-77
2021/01/24 07:59:28;;;;;;;5.50;2.40;;;3.20;99.90;;;;;;5101426;28;20229;-78
2021/01/24 08:01:55;;;;;;;4.25;2.45;;;3.10;99.90;;;;;;5096257;28;20221;-78
2021/01/24 08:04:23;;;;;;;4.38;2.50;;;3.40;99.90;;;;;;5094305;28;20288;-78
2021/01/24 08:06:51;;;;;;;4.10;2.28;;;3.30;99.90;;;;;;5112553;28;20205;-78
2021/01/24 08:09:18;;;;;;;5.40;2.70;;;3.40;99.90;;;;;;5113214;28;20588;-78
2021/01/24 08:11:44;;;;;;;5.53;1.92;;;3.30;99.90;;;;;;5093807;28;20707;-79
2021/01/24 08:14:11;;;;;;;3.88;1.90;;;3.20;99.90;;;;;;5093659;28;20699;-78
2021/01/24 08:16:41;;;;;;;5.05;2.72;;;3.40;99.90;;;;;;5102424;28;20216;-78
2021/01/24 08:19:10;;;;;;;4.63;2.35;;;3.50;99.90;;;;;;5095087;28;20241;-77
2021/01/24 08:21:38;;;;;;;4.03;2.00;;;3.60;99.90;;;;;;5111129;28;20200;-78
2021/01/24 08:24:07;;;;;;;3.80;2.00;;;3.50;99.90;;;;;;5107542;28;20192;-77
2021/01/24 08:26:35;;;;;;;5.55;2.50;;;3.50;99.90;;;;;;5097693;28;20567;-77
2021/01/24 08:29:02;;;;;;;4.78;2.40;;;3.30;99.90;;;;;;5099738;28;20602;-77
2021/01/24 08:31:28;;;;;;;4.70;2.00;;;3.30;99.90;;;;;;5096626;28;20205;-77
2021/01/24 08:33:56;;;;;;;6.00;2.00;;;3.40;99.90;;;;;;5104022;28;20256;-78
2021/01/24 08:36:26;;;;;;;4.35;1.90;;;3.50;99.90;;;;;;5106365;28;20239;-78
2021/01/24 08:38:56;;;;;;;5.18;2.60;;;3.40;99.90;;;;;;5101811;28;20259;-79
2021/01/24 08:41:29;;;;;;;4.15;1.98;;;3.50;99.90;;;;;;5093099;28;20570;-78
2021/01/24 08:44:03;;;;;;;4.55;1.90;;;3.60;99.90;;;;;;5098214;28;20326;-78
2021/01/24 08:46:35;;;;;;;11.70;2.80;;;3.60;99.90;;;;;;5097696;28;20216;-78
2021/01/24 08:49:05;;;;;;;3.90;2.15;;;3.60;99.90;;;;;;5092339;28;20209;-78
2021/01/24 08:51:51;;;;;;;9.75;2.58;;;3.70;99.90;;;;;;5092021;28;20678;-78
2021/01/24 08:54:24;;;;;;;5.35;2.60;;;3.80;99.90;;;;;;5111339;28;20220;-78
2021/01/24 08:56:52;;;;;;;5.70;2.40;;;3.90;99.90;;;;;;5098497;28;20244;-78
2021/01/24 08:59:20;;;;;;;6.88;2.65;;;4.10;99.90;;;;;;5101331;28;20889;-75
2021/01/24 09:01:46;;;;;;;5.25;2.95;;;4.30;99.90;;;;;;5092571;28;20558;-74
2021/01/24 09:04:21;;;;;;;4.03;2.35;;;4.30;99.90;;;;;;5096685;28;20200;-74
2021/01/24 09:07:07;;;;;;;6.68;2.33;;;4.30;99.90;;;;;;5108893;28;20259;-75
2021/01/24 09:09:37;;;;;;;5.07;1.83;;;4.40;99.90;;;;;;5110519;27;20216;-78
2021/01/24 09:12:05;;;;;;;4.80;2.40;;;4.20;99.90;;;;;;5095394;28;20205;-78
2021/01/24 09:14:32;;;;;;;5.95;2.28;;;4.10;99.90;;;;;;5092247;28;20209;-77
2021/01/24 09:17:07;;;;;;;7.13;2.78;;;4.20;99.90;;;;;;5093749;28;20205;-77
2021/01/24 09:19:35;;;;;;;4.30;2.30;;;4.10;99.90;;;;;;5111486;28;20589;-77
2021/01/24 09:22:02;;;;;;;3.95;2.35;;;4.20;99.90;;;;;;5099540;28;20220;-76
2021/01/24 09:24:29;;;;;;;4.75;2.28;;;4.20;99.90;;;;;;5097147;28;20200;-77
2021/01/24 09:26:56;;;;;;;4.63;2.40;;;4.50;99.90;;;;;;5098207;28;20244;-77
2021/01/24 09:29:23;;;;;;;3.85;1.90;;;4.40;99.90;;;;;;5109955;28;20703;-77
2021/01/24 09:31:50;;;;;;;4.88;2.90;;;4.20;99.90;;;;;;5099289;28;20772;-78
2021/01/24 09:34:17;;;;;;;7.07;2.63;;;4.00;99.90;;;;;;5093594;28;20253;-81
2021/01/24 09:36:43;;;;;;;6.78;2.70;;;4.20;99.90;;;;;;5105645;28;20259;-76
2021/01/24 09:39:10;;;;;;;10.85;2.50;;;4.10;99.90;;;;;;5111651;28;20624;-76
2021/01/24 09:41:37;;;;;;;4.78;2.60;;;4.00;99.90;;;;;;5100490;28;20205;-79
2021/01/24 09:44:05;;;;;;;8.15;3.42;;;4.20;99.90;;;;;;5112565;28;20572;-77
2021/01/24 09:46:32;;;;;;;4.53;2.60;;;3.90;99.90;;;;;;5113252;28;20212;-77
2021/01/24 09:48:59;;;;;;;6.47;2.58;;;4.20;99.90;;;;;;5105826;28;20281;-74
2021/01/24 09:51:25;;;;;;;4.00;2.28;;;4.20;99.90;;;;;;5086093;28;20247;-74
2021/01/24 09:53:53;;;;;;;4.88;2.90;;;4.00;99.90;;;;;;5072294;28;20218;-74
2021/01/24 09:56:20;;;;;;;7.07;2.78;;;3.80;99.90;;;;;;5094924;28;20200;-75
2021/01/24 09:58:47;;;;;;;4.68;2.30;;;4.10;99.90;;;;;;5109174;28;20307;-74
2021/01/24 10:01:14;;;;;;;8.52;3.20;;;4.10;99.90;;;;;;5086641;28;20229;-76
2021/01/24 10:03:41;;;;;;;8.90;2.90;;;4.00;99.90;;;;;;5094994;28;20293;-75
2021/01/24 10:06:08;;;;;;;5.00;3.10;;;4.10;99.90;;;;;;5091813;28;20197;-79
2021/01/24 10:08:35;;;;;;;5.68;3.78;;;4.30;99.90;;;;;;5109859;28;20269;-75
2021/01/24 10:11:02;;;;;;;7.88;2.85;;;4.20;99.90;;;;;;5092292;28;20319;-74
2021/01/24 10:13:28;;;;;;;3.83;2.40;;;4.40;99.90;;;;;;5090379;28;20228;-75
2021/01/24 10:15:55;;;;;;;4.63;3.15;;;4.60;99.90;;;;;;5094132;28;20216;-75
2021/01/24 10:18:23;;;;;;;3.92;2.20;;;4.50;99.90;;;;;;5108279;28;20278;-85
2021/01/24 10:20:50;;;;;;;4.55;2.13;;;4.60;99.90;;;;;;5090768;28;20224;-80
2021/01/24 10:23:20;;;;;;;3.67;1.80;;;4.90;99.90;;;;;;5090579;28;20283;-78
2021/01/24 10:25:47;;;;;;;4.70;2.25;;;4.70;99.90;;;;;;5081536;28;20198;-80
2021/01/24 10:28:13;;;;;;;4.68;1.70;;;4.80;99.90;;;;;;5098463;28;20232;-81
2021/01/24 10:30:40;;;;;;;4.13;2.08;;;4.80;99.90;;;;;;5100554;28;20799;-82
2021/01/24 10:33:07;;;;;;;3.72;2.00;;;4.60;99.90;;;;;;5102556;28;20217;-82
2021/01/24 10:35:34;;;;;;;5.47;2.75;;;4.80;99.90;;;;;;5099079;28;20344;-81
2021/01/24 10:38:01;;;;;;;5.47;2.15;;;4.90;99.90;;;;;;5098824;28;20209;-79
2021/01/24 10:40:28;;;;;;;4.38;1.70;;;4.70;99.90;;;;;;5108118;28;20217;-79
2021/01/24 10:42:56;;;;;;;4.22;1.40;;;4.90;99.90;;;;;;5110333;28;20265;-75
2021/01/24 10:45:24;;;;;;;7.85;1.60;;;4.80;99.90;;;;;;5107433;28;20201;-82
2021/01/24 10:47:51;;;;;;;3.72;1.75;;;4.70;99.90;;;;;;5103754;28;20195;-82
2021/01/24 10:50:17;;;;;;;3.10;1.50;;;4.60;99.90;;;;;;5103143;28;20297;-78
2021/01/24 10:52:45;;;;;;;3.28;1.75;;;4.80;99.90;;;;;;5092597;28;20240;-78
2021/01/24 10:55:12;;;;;;;3.63;1.75;;;4.80;99.90;;;;;;5113709;28;20788;-78
2021/01/24 10:57:39;;;;;;;3.65;1.58;;;4.70;99.90;;;;;;5120430;28;20474;-79
2021/01/24 11:00:07;;;;;;;5.00;2.00;;;4.70;99.90;;;;;;5115490;22;20234;-81
2021/01/24 11:02:34;;;;;;;3.50;1.83;;;4.90;99.90;;;;;;5042982;28;20199;-82
2021/01/24 11:05:01;;;;;;;4.40;1.83;;;4.80;99.90;;;;;;5043638;28;20207;-82
2021/01/24 11:07:28;;;;;;;4.43;1.52;;;5.10;99.90;;;;;;5048605;28;20199;-82
2021/01/24 11:09:56;;;;;;;6.53;1.30;;;4.90;99.80;;;;;;5049674;28;20226;-85
2021/01/24 11:12:23;;;;;;;3.15;1.50;;;5.00;98.60;;;;;;5045664;28;20287;-81
2021/01/24 11:14:50;;;;;;;3.20;1.30;;;4.90;98.90;;;;;;5039107;28;20199;-81
2021/01/24 11:17:17;;;;;;;3.42;1.50;;;5.30;98.80;;;;;;5036842;28;20214;-82
2021/01/24 11:19:44;;;;;;;3.47;1.42;;;5.10;98.70;;;;;;5042366;28;20234;-80
2021/01/24 11:22:11;;;;;;;3.15;1.27;;;5.10;98.10;;;;;;5039790;28;20442;-81
2021/01/24 11:24:38;;;;;;;3.40;1.83;;;5.20;98.10;;;;;;5039456;28;20199;-83
2021/01/24 11:27:07;;;;;;;4.43;1.50;;;5.00;97.90;;;;;;5030048;28;20227;-82
2021/01/24 11:29:34;;;;;;;4.35;1.52;;;5.10;98.30;;;;;;5034559;28;20211;-81
2021/01/24 11:32:01;;;;;;;3.00;1.35;;;5.30;98.40;;;;;;5036461;28;20199;-81
2021/01/24 11:34:27;;;;;;;4.97;1.70;;;5.50;97.70;;;;;;5038884;28;20224;-81
2021/01/24 11:36:54;;;;;;;3.67;1.60;;;5.40;97.90;;;;;;5038176;28;20203;-81
2021/01/24 11:39:21;;;;;;;2.90;1.40;;;5.50;97.70;;;;;;5044871;28;20227;-81
2021/01/24 11:41:48;;;;;;;2.53;1.05;;;5.30;97.30;;;;;;5044704;28;20208;-80
2021/01/24 11:44:15;;;;;;;3.45;1.70;;;5.30;97.20;;;;;;5038395;28;20204;-82
2021/01/24 11:46:42;;;;;;;5.15;1.95;;;5.50;97.50;;;;;;5045656;28;20207;-81
2021/01/24 11:49:09;;;;;;;4.05;1.80;;;5.40;97.50;;;;;;5038478;28;20207;-82
2021/01/24 11:51:36;;;;;;;3.50;1.67;;;5.60;97.30;;;;;;5039670;28;20684;-81
2021/01/24 11:54:03;;;;;;;8.70;2.10;;;5.60;97.20;;;;;;5039139;28;20250;-81
2021/01/24 11:56:30;;;;;;;4.40;1.73;;;5.50;97.40;;;;;;5035674;28;20218;-81
2021/01/24 11:58:56;;;;;;;4.55;1.60;;;5.60;97.40;;;;;;5034055;28;20210;-80
2021/01/24 12:01:24;;;;;;;2.90;1.25;;;5.80;97.30;;;;;;5035765;28;20709;-81
2021/01/24 12:03:50;;;;;;;3.35;1.50;;;5.60;97.10;;;;;;5038532;28;20693;-81
2021/01/24 12:06:17;;;;;;;3.53;1.70;;;5.70;97.10;;;;;;5036105;28;20214;-82
2021/01/24 12:08:43;;;;;;;2.83;1.42;;;5.70;97.10;;;;;;5036180;28;20216;-82
2021/01/24 12:11:10;;;;;;;5.90;1.95;;;5.60;96.90;;;;;;5039297;28;20705;-83
2021/01/24 12:13:37;;;;;;;2.80;1.20;;;5.70;97.30;;;;;;5040094;28;20234;-81
2021/01/24 12:16:05;;;;;;;4.25;1.60;;;5.70;97.20;;;;;;5051028;28;20564;-81
2021/01/24 12:18:35;;;;;;;4.10;1.83;;;5.40;97.00;;;;;;5018524;28;20196;-81
2021/01/24 12:21:02;;;;;;;5.25;1.67;;;5.30;97.30;;;;;;5030562;28;20262;-79
2021/01/24 12:23:29;;;;;;;4.63;2.20;;;5.40;97.20;;;;;;5045010;28;20195;-79
2021/01/24 12:25:56;;;;;;;3.63;1.80;;;5.60;97.60;;;;;;5044422;28;20207;-79
2021/01/24 12:28:22;;;;;;;2.63;0.90;;;5.70;97.50;;;;;;5044391;28;20389;-80
2021/01/24 12:30:49;;;;;;;3.30;1.60;;;5.50;96.90;;;;;;5048449;28;20257;-81
2021/01/24 12:33:15;;;;;;;5.38;1.30;;;5.30;97.80;;;;;;5045988;28;20227;-81
2021/01/24 12:35:43;;;;;;;4.10;1.80;;;5.40;97.60;;;;;;5043768;28;20261;-81
2021/01/24 12:38:10;;;;;;;3.58;1.73;;;5.40;97.60;;;;;;5044110;28;20644;-80
2021/01/24 12:40:36;;;;;;;4.47;2.00;;;5.30;97.60;;;;;;5042121;28;20306;-81
2021/01/24 12:43:03;;;;;;;4.90;1.90;;;5.30;97.80;;;;;;5043816;28;20215;-79
2021/01/24 12:45:30;;;;;;;3.20;1.70;;;5.50;97.90;;;;;;5046035;28;20350;-82
2021/01/24 12:47:56;;;;;;;3.45;1.70;;;5.50;97.50;;;;;;5043368;28;20206;-81
2021/01/24 12:50:23;;;;;;;4.60;1.60;;;5.30;97.60;;;;;;5041527;28;20227;-81
2021/01/24 12:52:51;;;;;;;3.75;1.90;;;5.50;97.80;;;;;;5038623;28;20223;-81
2021/01/24 12:55:17;;;;;;;3.38;1.45;;;5.60;97.90;;;;;;5039656;28;20211;-81
2021/01/24 12:57:44;;;;;;;5.70;1.40;;;5.50;97.40;;;;;;5040185;28;20619;-83
2021/01/24 13:00:12;;;;;;;3.95;2.25;;;5.70;97.00;;;;;;5040161;28;20235;-79
2021/01/24 13:02:39;;;;;;;3.75;1.70;;;5.40;96.70;;;;;;5029543;28;20227;-81
2021/01/24 13:05:09;;;;;;;3.28;1.63;;;5.50;97.00;;;;;;5027891;28;20191;-82